createdAt,value
2022-10-23T00:00:04.126Z,9.309050
2022-10-23T00:01:04.040Z,9.309089
2022-10-23T00:02:04.114Z,9.309116
2022-10-23T00:03:04.091Z,9.309098
2022-10-23T00:04:04.036Z,9.309053
2022-10-23T00:05:04.137Z,9.309089
2022-10-23T00:06:04.092Z,9.309048
2022-10-23T00:07:04.036Z,9.309070
2022-10-23T00:08:03.997Z,9.309031
2022-10-23T00:09:04.042Z,9.308990
2022-10-23T00:10:04.038Z,9.308990
2022-10-23T00:11:04.083Z,9.309005
2022-10-23T00:12:03.989Z,9.309118
2022-10-23T00:13:04.062Z,9.309050
2022-10-23T00:14:03.955Z,9.309023
2022-10-23T00:15:03.976Z,9.309032
2022-10-23T00:16:03.950Z,9.309071
2022-10-23T00:17:03.858Z,9.309121
2022-10-23T00:18:04.009Z,9.309130
2022-10-23T00:19:03.966Z,9.309078
2022-10-23T00:20:03.959Z,9.309033
2022-10-23T00:21:03.935Z,9.308928
2022-10-23T00:22:03.913Z,9.309007
2022-10-23T00:23:03.897Z,9.308985
2022-10-23T00:24:03.992Z,9.309023
2022-10-23T00:25:03.954Z,9.309043
2022-10-23T00:26:03.872Z,9.309072
2022-10-23T00:27:03.908Z,9.309038
2022-10-23T00:28:04.906Z,9.309082
2022-10-23T00:29:03.859Z,9.309048
2022-10-23T00:30:03.940Z,9.309064
2022-10-23T00:31:03.842Z,9.308961
2022-10-23T00:32:03.822Z,9.309085
2022-10-23T00:33:03.798Z,9.308998
2022-10-23T00:34:03.732Z,9.309047
2022-10-23T00:35:03.743Z,9.309038
2022-10-23T00:36:03.767Z,9.309061
2022-10-23T00:37:03.723Z,9.309169
2022-10-23T00:38:03.729Z,9.309040
2022-10-23T00:39:03.744Z,9.308955
2022-10-23T00:40:03.697Z,9.308934
2022-10-23T00:41:03.874Z,9.308944
2022-10-23T00:42:03.780Z,9.308965
2022-10-23T00:43:03.818Z,9.309072
2022-10-23T00:44:03.734Z,9.309119
2022-10-23T00:45:03.780Z,9.309114
2022-10-23T00:46:03.748Z,9.309175
2022-10-23T00:47:03.708Z,9.308998
2022-10-23T00:48:03.713Z,9.308957
2022-10-23T00:49:03.825Z,9.308982
2022-10-23T00:50:03.751Z,9.309047
2022-10-23T00:51:03.727Z,9.309059
2022-10-23T00:52:03.713Z,9.309002
2022-10-23T00:53:03.713Z,9.308864
2022-10-23T00:54:25.089Z,9.308928
2022-10-23T00:55:05.571Z,9.308983
2022-10-23T00:56:03.670Z,9.309102
2022-10-23T00:57:03.565Z,9.309058
2022-10-23T00:58:03.587Z,9.309047
2022-10-23T00:59:03.558Z,9.309012
2022-10-23T01:00:03.973Z,9.309161
2022-10-23T01:01:03.572Z,9.309135
2022-10-23T01:02:03.758Z,9.309173
2022-10-23T01:03:03.649Z,9.309053
2022-10-23T01:04:03.615Z,9.308999
2022-10-23T01:05:04.210Z,9.309003
2022-10-23T01:06:03.596Z,9.308990
2022-10-23T01:07:03.591Z,9.309009
2022-10-23T01:08:03.579Z,9.309076
2022-10-23T01:09:03.574Z,9.308937
2022-10-23T01:10:03.560Z,9.308984
2022-10-23T01:11:03.612Z,9.309081
2022-10-23T01:12:03.575Z,9.309127
2022-10-23T01:13:03.528Z,9.309107
2022-10-23T01:15:04.531Z,9.308983
2022-10-23T01:16:03.633Z,9.308833
2022-10-23T01:17:03.474Z,9.309010
2022-10-23T01:18:03.454Z,9.309088
2022-10-23T01:19:03.411Z,9.309106
2022-10-23T01:20:03.390Z,9.309095
2022-10-23T01:21:03.403Z,9.309084
2022-10-23T01:22:03.454Z,9.309118
2022-10-23T01:23:03.403Z,9.309072
2022-10-23T01:24:03.423Z,9.308820
2022-10-23T01:25:03.373Z,9.308815
2022-10-23T01:26:03.427Z,9.308950
2022-10-23T01:27:03.489Z,9.308979
2022-10-23T01:28:03.428Z,9.309042
2022-10-23T01:29:03.423Z,9.309090
2022-10-23T01:30:03.386Z,9.309156
2022-10-23T01:31:03.406Z,9.309083
2022-10-23T01:32:03.403Z,9.309046
2022-10-23T01:33:03.457Z,9.309032
2022-10-23T01:34:03.364Z,9.309072
2022-10-23T01:35:03.403Z,9.309115
2022-10-23T01:36:03.364Z,9.309127
2022-10-23T01:37:03.427Z,9.309068
2022-10-23T01:38:03.328Z,9.309101
2022-10-23T01:40:04.231Z,9.309027
2022-10-23T01:41:03.230Z,9.309001
2022-10-23T01:42:03.262Z,9.309090
2022-10-23T01:43:03.294Z,9.309089
2022-10-23T01:44:03.338Z,9.309140
2022-10-23T01:45:03.287Z,9.309162
2022-10-23T01:46:03.281Z,9.309206
2022-10-23T01:47:03.269Z,9.309217
2022-10-23T01:48:03.273Z,9.309202
2022-10-23T01:49:03.297Z,9.309134
2022-10-23T01:50:03.292Z,9.308910
2022-10-23T01:51:03.245Z,9.309055
2022-10-23T01:52:03.214Z,9.309005
2022-10-23T01:53:03.255Z,9.309129
2022-10-23T01:54:03.247Z,9.308891
2022-10-23T01:55:03.250Z,9.308898
2022-10-23T01:56:03.232Z,9.309003
2022-10-23T01:57:03.215Z,9.309124
2022-10-23T01:58:03.253Z,9.309049
2022-10-23T01:59:03.183Z,9.309131
2022-10-23T02:00:03.611Z,9.309169
2022-10-23T02:01:03.158Z,9.309018
2022-10-23T02:02:03.297Z,9.309019
2022-10-23T02:03:03.164Z,9.308994
2022-10-23T02:04:03.215Z,9.309110
2022-10-23T02:05:03.151Z,9.309093
2022-10-23T02:06:03.188Z,9.308953
2022-10-23T02:07:04.140Z,9.309010
2022-10-23T02:08:03.243Z,9.309037
2022-10-23T02:09:03.115Z,9.308969
2022-10-23T02:10:03.116Z,9.309043
2022-10-23T02:11:03.150Z,9.308903
2022-10-23T02:12:03.094Z,9.309089
2022-10-23T02:13:03.088Z,9.309160
2022-10-23T02:14:03.105Z,9.309375
2022-10-23T02:15:02.990Z,9.309282
2022-10-23T02:16:02.994Z,9.309221
2022-10-23T02:17:03.008Z,9.309057
2022-10-23T02:18:02.969Z,9.308913
2022-10-23T02:19:03.107Z,9.308665
2022-10-23T02:20:03.143Z,9.308720
2022-10-23T02:21:03.085Z,9.308965
2022-10-23T02:22:03.029Z,9.309011
2022-10-23T02:23:03.066Z,9.309049
2022-10-23T02:24:03.084Z,9.309026
2022-10-23T02:25:02.978Z,9.308978
2022-10-23T02:26:03.007Z,9.308948
2022-10-23T02:27:02.977Z,9.309000
2022-10-23T02:28:03.006Z,9.308979
2022-10-23T02:29:03.021Z,9.309049
2022-10-23T02:30:02.984Z,9.309125
2022-10-23T02:31:02.953Z,9.309058
2022-10-23T02:32:02.936Z,9.308879
2022-10-23T02:33:02.992Z,9.308949
2022-10-23T02:34:02.842Z,9.309059
2022-10-23T02:35:02.837Z,9.309085
2022-10-23T02:36:02.846Z,9.308959
2022-10-23T02:37:02.934Z,9.309032
2022-10-23T02:38:02.866Z,9.308966
2022-10-23T02:39:02.842Z,9.308960
2022-10-23T02:40:02.817Z,9.308975
2022-10-23T02:41:02.832Z,9.309031
2022-10-23T02:42:02.919Z,9.309100
2022-10-23T02:43:02.864Z,9.309048
2022-10-23T02:44:03.065Z,9.308912
2022-10-23T02:45:02.847Z,9.308985
2022-10-23T02:46:02.856Z,9.309012
2022-10-23T02:47:02.923Z,9.309023
2022-10-23T02:48:02.852Z,9.309034
2022-10-23T02:49:02.835Z,9.309009
2022-10-23T02:50:02.854Z,9.309157
2022-10-23T02:51:02.783Z,9.309216
2022-10-23T02:52:02.800Z,9.309167
2022-10-23T02:53:02.795Z,9.309128
2022-10-23T02:54:02.782Z,9.309140
2022-10-23T02:55:02.784Z,9.309033
2022-10-23T02:56:02.795Z,9.309049
2022-10-23T02:57:02.783Z,9.309068
2022-10-23T02:58:02.691Z,9.309019
2022-10-23T02:59:02.673Z,9.309032
2022-10-23T03:00:02.680Z,9.309098
2022-10-23T03:01:03.070Z,9.309156
2022-10-23T03:02:02.857Z,9.309147
2022-10-23T03:03:02.647Z,9.309204
2022-10-23T03:04:02.635Z,9.309133
2022-10-23T03:05:02.645Z,9.309132
2022-10-23T03:06:02.631Z,9.309132
2022-10-23T03:07:02.620Z,9.309139
2022-10-23T03:08:02.646Z,9.309156
2022-10-23T03:09:02.698Z,9.309122
2022-10-23T03:10:02.735Z,9.309081
2022-10-23T03:11:02.717Z,9.309091
2022-10-23T03:12:02.664Z,9.309079
2022-10-23T03:13:02.764Z,9.309144
2022-10-23T03:14:02.670Z,9.309102
2022-10-23T03:15:02.634Z,9.309106
2022-10-23T03:16:02.649Z,9.309066
2022-10-23T03:17:02.697Z,9.309070
2022-10-23T03:18:02.650Z,9.309085
2022-10-23T03:19:02.673Z,9.309164
2022-10-23T03:20:02.539Z,9.309072
2022-10-23T03:21:02.517Z,9.309093
2022-10-23T03:22:02.520Z,9.309143
2022-10-23T03:23:02.492Z,9.309100
2022-10-23T03:24:02.624Z,9.309105
2022-10-23T03:25:02.571Z,9.309149
2022-10-23T03:26:02.597Z,9.309109
2022-10-23T03:27:02.593Z,9.309098
2022-10-23T03:28:02.610Z,9.309139
2022-10-23T03:29:02.546Z,9.309108
2022-10-23T03:30:02.512Z,9.309100
2022-10-23T03:31:02.516Z,9.309097
2022-10-23T03:32:02.514Z,9.309105
2022-10-23T03:33:02.595Z,9.309128
2022-10-23T03:34:04.124Z,9.309079
2022-10-23T03:35:02.504Z,9.309133
2022-10-23T03:36:02.489Z,9.309100
2022-10-23T03:37:02.477Z,9.309104
2022-10-23T03:38:02.505Z,9.309070
2022-10-23T03:39:02.472Z,9.309121
2022-10-23T03:40:02.488Z,9.309131
2022-10-23T03:41:02.502Z,9.309117
2022-10-23T03:42:02.459Z,9.309217
2022-10-23T03:43:02.349Z,9.309173
2022-10-23T03:44:02.420Z,9.308926
2022-10-23T03:45:02.389Z,9.308993
2022-10-23T03:46:02.399Z,9.309011
2022-10-23T03:47:02.359Z,9.309017
2022-10-23T03:48:02.332Z,9.309112
2022-10-23T03:49:02.376Z,9.309087
2022-10-23T03:50:02.340Z,9.309066
2022-10-23T03:51:02.445Z,9.309046
2022-10-23T03:52:02.356Z,9.309071
2022-10-23T03:53:02.350Z,9.309093
2022-10-23T03:54:02.386Z,9.309024
2022-10-23T03:55:02.432Z,9.308987
2022-10-23T03:56:02.350Z,9.308935
2022-10-23T03:57:02.348Z,9.309050
2022-10-23T03:58:02.369Z,9.309130
2022-10-23T03:59:02.325Z,9.309114
2022-10-23T04:00:02.436Z,9.309062
2022-10-23T04:01:02.389Z,9.309060
2022-10-23T04:02:02.417Z,9.309083
2022-10-23T04:03:02.322Z,9.309031
2022-10-23T04:04:02.241Z,9.309060
2022-10-23T04:05:02.420Z,9.309097
2022-10-23T04:06:02.210Z,9.309135
2022-10-23T04:07:02.247Z,9.309155
2022-10-23T04:08:02.374Z,9.309027
2022-10-23T04:09:02.318Z,9.309049
2022-10-23T04:10:02.290Z,9.308991
2022-10-23T04:11:02.288Z,9.309061
2022-10-23T04:12:02.287Z,9.309057
2022-10-23T04:13:02.231Z,9.309161
2022-10-23T04:14:02.232Z,9.309190
2022-10-23T04:15:02.217Z,9.309073
2022-10-23T04:16:02.231Z,9.308964
2022-10-23T04:17:02.262Z,9.309007
2022-10-23T04:18:02.169Z,9.309120
2022-10-23T04:19:02.153Z,9.309021
2022-10-23T04:20:02.148Z,9.309031
2022-10-23T04:21:02.127Z,9.309072
2022-10-23T04:22:02.128Z,9.309089
2022-10-23T04:23:02.146Z,9.309141
2022-10-23T04:24:02.123Z,9.309117
2022-10-23T04:25:02.114Z,9.309083
2022-10-23T04:26:02.118Z,9.309122
2022-10-23T04:27:02.153Z,9.309164
2022-10-23T04:28:02.119Z,9.309168
2022-10-23T04:29:02.117Z,9.309034
2022-10-23T04:30:02.092Z,9.309117
2022-10-23T04:31:02.154Z,9.309095
2022-10-23T04:32:02.068Z,9.309085
2022-10-23T04:33:02.158Z,9.309071
2022-10-23T04:34:02.116Z,9.309250
2022-10-23T04:35:02.137Z,9.309134
2022-10-23T04:36:01.978Z,9.309160
2022-10-23T04:37:01.969Z,9.309271
2022-10-23T04:38:02.089Z,9.309184
2022-10-23T04:39:01.938Z,9.309139
2022-10-23T04:40:01.970Z,9.309068
2022-10-23T04:41:01.957Z,9.308999
2022-10-23T04:42:01.991Z,9.308990
2022-10-23T04:43:02.015Z,9.308971
2022-10-23T04:44:02.052Z,9.309004
2022-10-23T04:45:01.985Z,9.309047
2022-10-23T04:46:02.036Z,9.309186
2022-10-23T04:47:01.993Z,9.309101
2022-10-23T04:48:01.975Z,9.308989
2022-10-23T04:49:02.092Z,9.309062
2022-10-23T04:50:01.949Z,9.308766
2022-10-23T04:51:02.037Z,9.308754
2022-10-23T04:52:01.846Z,9.308944
2022-10-23T04:53:01.832Z,9.309011
2022-10-23T04:54:01.960Z,9.309118
2022-10-23T04:55:01.859Z,9.308930
2022-10-23T04:56:01.848Z,9.308912
2022-10-23T04:57:01.828Z,9.308873
2022-10-23T04:58:01.800Z,9.309136
2022-10-23T04:59:01.818Z,9.309282
2022-10-23T05:00:01.815Z,9.309079
2022-10-23T05:01:01.965Z,9.309008
2022-10-23T05:02:01.863Z,9.308978
2022-10-23T05:03:01.821Z,9.308998
2022-10-23T05:04:01.843Z,9.308908
2022-10-23T05:05:01.763Z,9.309020
2022-10-23T05:06:01.901Z,9.309057
2022-10-23T05:07:01.836Z,9.309009
2022-10-23T05:08:01.835Z,9.308904
2022-10-23T05:09:01.782Z,9.308954
2022-10-23T05:10:16.519Z,9.309019
2022-10-23T05:11:01.835Z,9.309065
2022-10-23T05:12:01.786Z,9.309076
2022-10-23T05:13:01.853Z,9.309078
2022-10-23T05:14:01.780Z,9.308996
2022-10-23T05:15:01.698Z,9.308991
2022-10-23T05:16:01.667Z,9.309002
2022-10-23T05:17:01.690Z,9.309060
2022-10-23T05:18:01.693Z,9.309024
2022-10-23T05:19:01.667Z,9.308979
2022-10-23T05:20:01.639Z,9.309196
2022-10-23T05:21:01.657Z,9.309073
2022-10-23T05:22:01.774Z,9.309059
2022-10-23T05:23:01.708Z,9.309024
2022-10-23T05:24:01.688Z,9.308995
2022-10-23T05:25:01.678Z,9.308977
2022-10-23T05:26:01.678Z,9.308978
2022-10-23T05:27:01.670Z,9.309009
2022-10-23T05:28:01.697Z,9.309048
2022-10-23T05:29:01.665Z,9.309047
2022-10-23T05:30:01.659Z,9.309040
2022-10-23T05:31:01.656Z,9.309007
2022-10-23T05:32:01.624Z,9.309010
2022-10-23T05:33:01.582Z,9.309034
2022-10-23T05:34:01.575Z,9.309068
2022-10-23T05:35:02.511Z,9.309012
2022-10-23T05:36:01.531Z,9.309006
2022-10-23T05:37:01.606Z,9.308985
2022-10-23T05:38:01.538Z,9.309044
2022-10-23T05:39:01.621Z,9.309041
2022-10-23T05:40:01.567Z,9.309004
2022-10-23T05:41:02.601Z,9.309007
2022-10-23T05:42:01.561Z,9.309021
2022-10-23T05:43:01.541Z,9.309030
2022-10-23T05:44:01.618Z,9.309011
2022-10-23T05:45:01.564Z,9.308998
2022-10-23T05:46:01.538Z,9.308998
2022-10-23T05:47:01.527Z,9.308953
2022-10-23T05:48:16.838Z,9.308943
2022-10-23T05:49:02.505Z,9.308970
2022-10-23T05:50:01.549Z,9.308999
2022-10-23T05:51:01.491Z,9.309014
2022-10-23T05:52:01.490Z,9.309031
2022-10-23T05:53:01.489Z,9.309027
2022-10-23T05:54:01.489Z,9.308995
2022-10-23T05:55:01.530Z,9.309038
2022-10-23T05:56:01.450Z,9.308984
2022-10-23T05:57:01.401Z,9.308920
2022-10-23T05:58:01.373Z,9.308920
2022-10-23T05:59:01.492Z,9.308973
2022-10-23T06:00:01.414Z,9.308955
2022-10-23T06:01:01.387Z,9.308943
2022-10-23T06:02:01.437Z,9.309074
2022-10-23T06:03:01.327Z,9.309180
2022-10-23T06:04:01.298Z,9.309069
2022-10-23T06:05:01.443Z,9.308977
2022-10-23T06:06:01.364Z,9.308931
2022-10-23T06:07:01.378Z,9.308863
2022-10-23T06:08:01.388Z,9.308868
2022-10-23T06:09:01.370Z,9.308875
2022-10-23T06:10:01.376Z,9.308864
2022-10-23T06:11:01.805Z,9.308728
2022-10-23T06:12:01.319Z,9.308768
2022-10-23T06:13:01.369Z,9.308825
2022-10-23T06:14:01.426Z,9.308804
2022-10-23T06:15:01.311Z,9.308798
2022-10-23T06:16:01.378Z,9.308862
2022-10-23T06:17:01.302Z,9.308876
2022-10-23T06:18:01.371Z,9.308838
2022-10-23T06:19:01.202Z,9.308798
2022-10-23T06:20:02.229Z,9.308864
2022-10-23T06:21:01.210Z,9.308833
2022-10-23T06:22:01.260Z,9.308840
2022-10-23T06:23:01.225Z,9.308890
2022-10-23T06:24:14.720Z,9.308886
2022-10-23T06:25:01.152Z,9.308947
2022-10-23T06:26:01.199Z,9.308856
2022-10-23T06:27:01.200Z,9.308871
2022-10-23T06:28:01.235Z,9.308953
2022-10-23T06:29:01.210Z,9.309091
2022-10-23T06:30:01.375Z,9.308960
2022-10-23T06:31:01.239Z,9.309026
2022-10-23T06:32:01.283Z,9.309065
2022-10-23T06:33:03.360Z,9.308958
2022-10-23T06:34:02.283Z,9.308876
2022-10-23T06:35:01.193Z,9.308873
2022-10-23T06:36:01.225Z,9.308896
2022-10-23T06:37:02.194Z,9.308825
2022-10-23T06:38:02.202Z,9.308804
2022-10-23T06:39:01.173Z,9.308784
2022-10-23T06:40:01.200Z,9.308941
2022-10-23T06:41:01.214Z,9.308934
2022-10-23T06:42:01.077Z,9.308939
2022-10-23T06:43:01.069Z,9.308943
2022-10-23T06:44:01.099Z,9.308978
2022-10-23T06:45:04.786Z,9.308922
2022-10-23T06:46:03.108Z,9.308867
2022-10-23T06:47:01.049Z,9.308877
2022-10-23T06:48:01.145Z,9.309028
2022-10-23T06:49:01.088Z,9.309114
2022-10-23T06:50:01.085Z,9.309049
2022-10-23T06:51:01.070Z,9.308999
2022-10-23T06:52:01.063Z,9.308906
2022-10-23T06:53:01.086Z,9.308890
2022-10-23T06:54:01.096Z,9.309015
2022-10-23T06:55:01.113Z,9.309150
2022-10-23T06:56:01.042Z,9.309157
2022-10-23T06:57:01.071Z,9.309054
2022-10-23T06:58:01.017Z,9.309129
2022-10-23T06:59:01.039Z,9.309073
2022-10-23T07:00:01.001Z,9.309087
2022-10-23T07:01:01.121Z,9.309039
2022-10-23T07:02:00.927Z,9.309029
2022-10-23T07:03:00.908Z,9.309107
2022-10-23T07:04:00.947Z,9.309132
2022-10-23T07:05:00.942Z,9.309078
2022-10-23T07:06:00.885Z,9.309064
2022-10-23T07:07:00.871Z,9.309014
2022-10-23T07:08:00.893Z,9.309014
2022-10-23T07:09:00.868Z,9.309015
2022-10-23T07:10:01.017Z,9.309030
2022-10-23T07:11:00.923Z,9.308961
2022-10-23T07:12:00.958Z,9.309020
2022-10-23T07:13:01.195Z,9.309054
2022-10-23T07:14:00.893Z,9.309091
2022-10-23T07:15:00.890Z,9.309063
2022-10-23T07:16:01.045Z,9.309073
2022-10-23T07:17:00.876Z,9.309086
2022-10-23T07:18:00.935Z,9.309084
2022-10-23T07:19:00.907Z,9.309140
2022-10-23T07:20:00.824Z,9.309139
2022-10-23T07:21:00.832Z,9.309062
2022-10-23T07:22:00.819Z,9.309134
2022-10-23T07:23:00.775Z,9.309210
2022-10-23T07:24:00.781Z,9.309147
2022-10-23T07:25:00.746Z,9.309104
2022-10-23T07:26:00.763Z,9.309183
2022-10-23T07:27:00.957Z,9.309175
2022-10-23T07:28:00.734Z,9.309107
2022-10-23T07:29:00.836Z,9.309074
2022-10-23T07:30:00.776Z,9.309125
2022-10-23T07:31:00.792Z,9.309122
2022-10-23T07:32:00.832Z,9.309175
2022-10-23T07:33:00.755Z,9.309225
2022-10-23T07:34:00.764Z,9.309135
2022-10-23T07:35:00.713Z,9.308976
2022-10-23T07:36:00.803Z,9.309058
2022-10-23T07:37:00.813Z,9.309019
2022-10-23T07:38:00.875Z,9.309067
2022-10-23T07:39:00.644Z,9.309047
2022-10-23T07:40:00.614Z,9.309140
2022-10-23T07:41:00.766Z,9.309049
2022-10-23T07:42:00.625Z,9.309132
2022-10-23T07:43:00.655Z,9.309082
2022-10-23T07:44:00.636Z,9.309100
2022-10-23T07:45:00.615Z,9.309142
2022-10-23T07:46:00.584Z,9.309126
2022-10-23T07:47:00.656Z,9.309109
2022-10-23T07:48:00.700Z,9.309138
2022-10-23T07:49:00.658Z,9.309136
2022-10-23T07:50:00.678Z,9.309130
2022-10-23T07:51:00.635Z,9.309068
2022-10-23T07:53:01.698Z,9.309042
2022-10-23T07:54:00.606Z,9.309085
2022-10-23T07:55:00.692Z,9.309071
2022-10-23T07:56:00.618Z,9.309109
2022-10-23T07:57:00.608Z,9.309056
2022-10-23T07:58:00.637Z,9.309179
2022-10-23T07:59:00.638Z,9.309114
2022-10-23T08:00:00.493Z,9.309093
2022-10-23T08:01:00.502Z,9.309138
2022-10-23T08:02:00.588Z,9.309161
2022-10-23T08:03:00.463Z,9.309150
2022-10-23T08:04:01.125Z,9.309105
2022-10-23T08:05:00.444Z,9.309073
2022-10-23T08:06:00.428Z,9.309095
2022-10-23T08:07:00.458Z,9.309114
2022-10-23T08:08:00.540Z,9.309083
2022-10-23T08:09:03.758Z,9.309156
2022-10-23T08:10:01.469Z,9.309080
2022-10-23T08:11:00.457Z,9.309124
2022-10-23T08:12:00.502Z,9.309104
2022-10-23T08:13:00.538Z,9.309053
2022-10-23T08:14:00.492Z,9.309072
2022-10-23T08:15:00.520Z,9.309060
2022-10-23T08:16:00.469Z,9.309021
2022-10-23T08:18:00.491Z,9.309050
2022-10-23T08:19:00.402Z,9.309153
2022-10-23T08:20:00.433Z,9.309114
2022-10-23T08:21:00.763Z,9.309115
2022-10-23T08:22:00.457Z,9.309094
2022-10-23T08:23:00.360Z,9.309137
2022-10-23T08:24:00.578Z,9.309018
2022-10-23T08:25:00.388Z,9.309088
2022-10-23T08:26:00.391Z,9.309070
2022-10-23T08:27:00.621Z,9.309030
2022-10-23T08:28:04.222Z,9.308988
2022-10-23T08:29:02.345Z,9.309160
2022-10-23T08:30:00.262Z,9.309049
2022-10-23T08:31:00.382Z,9.309050
2022-10-23T08:32:01.417Z,9.309089
2022-10-23T08:33:00.343Z,9.309133
2022-10-23T08:34:00.419Z,9.309123
2022-10-23T08:35:00.461Z,9.309120
2022-10-23T08:36:00.283Z,9.309105
2022-10-23T08:37:00.447Z,9.309111
2022-10-23T08:38:00.305Z,9.309134
2022-10-23T08:39:00.654Z,9.309124
2022-10-23T08:40:01.039Z,9.309099
2022-10-23T08:41:00.447Z,9.309158
2022-10-23T08:42:00.540Z,9.309125
2022-10-23T08:43:00.343Z,9.309174
2022-10-23T08:44:00.162Z,9.309111
2022-10-23T08:45:00.340Z,9.309112
2022-10-23T08:46:00.538Z,9.309151
2022-10-23T08:47:00.261Z,9.309138
2022-10-23T08:48:00.272Z,9.309119
2022-10-23T08:49:00.267Z,9.309134
2022-10-23T08:50:00.521Z,9.309098
2022-10-23T08:51:00.203Z,9.309127
2022-10-23T08:52:00.201Z,9.309094
2022-10-23T08:53:00.246Z,9.309125
2022-10-23T08:54:00.471Z,9.309123
2022-10-23T08:55:01.073Z,9.309141
2022-10-23T08:56:00.164Z,9.309099
2022-10-23T08:57:00.172Z,9.309069
2022-10-23T08:58:00.196Z,9.309122
2022-10-23T08:59:00.124Z,9.309128
2022-10-23T09:00:01.131Z,9.309159
2022-10-23T09:01:00.292Z,9.309130
2022-10-23T09:02:00.437Z,9.309153
2022-10-23T09:03:00.137Z,9.309103
2022-10-23T09:04:00.316Z,9.309120
2022-10-23T09:05:00.165Z,9.309093
2022-10-23T09:06:00.183Z,9.309042
2022-10-23T09:07:00.099Z,9.309131
2022-10-23T09:08:00.164Z,9.309132
2022-10-23T09:09:00.212Z,9.309102
2022-10-23T09:09:59.991Z,9.309052
2022-10-23T09:11:12.772Z,9.309095
2022-10-23T09:11:59.981Z,9.309046
2022-10-23T09:13:00.565Z,9.309154
2022-10-23T09:13:59.961Z,9.309147
2022-10-23T09:15:00.004Z,9.309132
2022-10-23T09:15:59.945Z,9.309111
2022-10-23T09:17:00.204Z,9.309136
2022-10-23T09:17:59.997Z,9.309093
2022-10-23T09:19:00.100Z,9.309183
2022-10-23T09:20:00.068Z,9.309123
2022-10-23T09:20:59.948Z,9.309103
2022-10-23T09:21:59.968Z,9.309151
2022-10-23T09:23:00.588Z,9.309097
2022-10-23T09:23:59.927Z,9.309171
2022-10-23T09:24:59.947Z,9.309112
2022-10-23T09:26:00.094Z,9.309101
2022-10-23T09:26:59.942Z,9.309128
2022-10-23T09:28:01.574Z,9.309098
2022-10-23T09:29:00.922Z,9.309151
2022-10-23T09:29:59.862Z,9.309155
2022-10-23T09:31:00.021Z,9.309140
2022-10-23T09:31:59.808Z,9.309114
2022-10-23T09:33:03.350Z,9.309141
2022-10-23T09:34:00.850Z,9.309120
2022-10-23T09:34:59.792Z,9.309128
2022-10-23T09:35:59.888Z,9.309104
2022-10-23T09:36:59.924Z,9.309170
2022-10-23T09:37:59.936Z,9.309152
2022-10-23T09:38:59.869Z,9.309156
2022-10-23T09:39:59.879Z,9.309254
2022-10-23T09:40:59.906Z,9.309263
2022-10-23T09:42:08.583Z,9.309174
2022-10-23T09:42:59.926Z,9.309101
2022-10-23T09:44:12.513Z,9.309148
2022-10-23T09:44:59.820Z,9.309185
2022-10-23T09:45:59.820Z,9.309144
2022-10-23T09:46:59.981Z,9.309143
2022-10-23T09:47:59.835Z,9.309113
2022-10-23T09:49:02.136Z,9.309127
2022-10-23T09:50:00.834Z,9.309163
2022-10-23T09:50:59.738Z,9.309112
2022-10-23T09:51:59.671Z,9.309062
2022-10-23T09:52:59.900Z,9.309123
2022-10-23T09:53:59.686Z,9.309117
2022-10-23T09:54:59.865Z,9.309114
2022-10-23T09:55:59.786Z,9.309097
2022-10-23T09:56:59.720Z,9.309105
2022-10-23T09:57:59.820Z,9.309134
2022-10-23T09:58:59.624Z,9.309084
2022-10-23T10:00:04.346Z,9.309120
2022-10-23T10:01:01.059Z,9.309107
2022-10-23T10:01:59.928Z,9.309098
2022-10-23T10:02:59.718Z,9.309118
2022-10-23T10:03:59.728Z,9.309114
2022-10-23T10:04:59.708Z,9.309108
2022-10-23T10:05:59.746Z,9.309073
2022-10-23T10:06:59.794Z,9.309132
2022-10-23T10:07:59.655Z,9.309168
2022-10-23T10:08:59.692Z,9.309128
2022-10-23T10:09:59.681Z,9.309067
2022-10-23T10:10:59.825Z,9.309059
2022-10-23T10:11:59.764Z,9.309054
2022-10-23T10:12:59.683Z,9.309104
2022-10-23T10:13:59.724Z,9.309095
2022-10-23T10:15:00.184Z,9.309148
2022-10-23T10:15:59.507Z,9.309099
2022-10-23T10:16:59.528Z,9.308999
2022-10-23T10:17:59.514Z,9.308975
2022-10-23T10:18:59.587Z,9.309031
2022-10-23T10:20:03.686Z,9.309119
2022-10-23T10:21:00.487Z,9.309176
2022-10-23T10:21:59.505Z,9.309180
2022-10-23T10:22:59.570Z,9.309124
2022-10-23T10:23:59.541Z,9.309156
2022-10-23T10:24:59.604Z,9.309082
2022-10-23T10:25:59.537Z,9.309086
2022-10-23T10:26:59.524Z,9.309077
2022-10-23T10:27:59.529Z,9.309005
2022-10-23T10:29:00.097Z,9.309074
2022-10-23T10:29:59.899Z,9.309093
2022-10-23T10:30:59.530Z,9.309033
2022-10-23T10:31:59.504Z,9.309050
2022-10-23T10:32:59.536Z,9.309052
2022-10-23T10:33:59.490Z,9.309086
2022-10-23T10:34:59.554Z,9.309124
2022-10-23T10:35:59.538Z,9.309137
2022-10-23T10:36:59.489Z,9.309119
2022-10-23T10:37:59.449Z,9.308950
2022-10-23T10:38:59.543Z,9.309025
2022-10-23T10:39:59.427Z,9.309033
2022-10-23T10:40:59.671Z,9.308951
2022-10-23T10:41:59.659Z,9.308980
2022-10-23T10:42:59.513Z,9.309024
2022-10-23T10:43:59.534Z,9.309024
2022-10-23T10:44:59.757Z,9.309115
2022-10-23T10:45:59.480Z,9.309167
2022-10-23T10:46:59.364Z,9.309033
2022-10-23T10:47:59.331Z,9.309072
2022-10-23T10:48:59.394Z,9.309040
2022-10-23T10:49:59.354Z,9.309048
2022-10-23T10:50:59.861Z,9.309011
2022-10-23T10:51:59.719Z,9.309116
2022-10-23T10:52:59.641Z,9.309119
2022-10-23T10:53:59.399Z,9.309126
2022-10-23T10:54:59.341Z,9.309142
2022-10-23T10:55:59.473Z,9.309127
2022-10-23T10:56:59.335Z,9.309001
2022-10-23T10:58:00.124Z,9.308935
2022-10-23T10:58:59.372Z,9.309013
2022-10-23T10:59:59.372Z,9.308987
2022-10-23T11:00:59.429Z,9.308906
2022-10-23T11:02:00.505Z,9.309000
2022-10-23T11:02:59.320Z,9.309015
2022-10-23T11:03:59.258Z,9.309012
2022-10-23T11:04:59.289Z,9.308963
2022-10-23T11:06:59.313Z,9.308963
2022-10-23T11:07:59.250Z,9.308999
2022-10-23T11:09:19.299Z,9.309053
2022-10-23T11:10:01.143Z,9.309043
2022-10-23T11:10:59.297Z,9.309029
2022-10-23T11:11:59.430Z,9.308911
2022-10-23T11:12:59.291Z,9.308990
2022-10-23T11:13:59.718Z,9.308992
2022-10-23T11:14:59.116Z,9.309015
2022-10-23T11:15:59.265Z,9.309052
2022-10-23T11:16:59.125Z,9.309107
2022-10-23T11:17:59.156Z,9.309062
2022-10-23T11:18:59.431Z,9.308977
2022-10-23T11:19:59.105Z,9.308739
2022-10-23T11:20:59.226Z,9.308968
2022-10-23T11:21:59.112Z,9.309003
2022-10-23T11:22:59.211Z,9.308997
2022-10-23T11:23:59.196Z,9.309099
2022-10-23T11:24:59.154Z,9.309105
2022-10-23T11:25:59.131Z,9.309083
2022-10-23T11:26:59.090Z,9.309095
2022-10-23T11:28:02.828Z,9.309055
2022-10-23T11:29:01.020Z,9.309023
2022-10-23T11:29:59.120Z,9.309118
2022-10-23T11:30:59.222Z,9.309140
2022-10-23T11:31:59.042Z,9.309157
2022-10-23T11:32:59.061Z,9.309050
2022-10-23T11:33:59.044Z,9.309006
2022-10-23T11:34:59.015Z,9.308992
2022-10-23T11:35:59.113Z,9.309011
2022-10-23T11:36:59.216Z,9.309106
2022-10-23T11:37:59.219Z,9.309014
2022-10-23T11:38:59.006Z,9.309002
2022-10-23T11:39:58.898Z,9.309081
2022-10-23T11:40:59.003Z,9.309045
2022-10-23T11:41:58.934Z,9.308971
2022-10-23T11:42:58.879Z,9.308912
2022-10-23T11:43:58.980Z,9.309069
2022-10-23T11:44:58.944Z,9.309085
2022-10-23T11:45:59.046Z,9.309175
2022-10-23T11:46:59.037Z,9.309116
2022-10-23T11:47:58.955Z,9.309108
2022-10-23T11:48:59.064Z,9.309109